createdAt,value
2023-04-07T00:01:29.583Z,8.47
2023-04-07T00:05:32.336Z,8.70
2023-04-07T00:09:34.040Z,8.07
2023-04-07T00:13:35.777Z,8.80
2023-04-07T00:17:37.700Z,8.10
2023-04-07T00:21:39.493Z,8.03
2023-04-07T00:25:41.523Z,7.10
2023-04-07T00:29:46.463Z,8.17
2023-04-07T00:33:49.489Z,8.00
2023-04-07T00:37:51.327Z,8.03
2023-04-07T00:41:54.383Z,8.50
2023-04-07T00:45:56.188Z,7.97
2023-04-07T00:49:57.990Z,7.90
2023-04-07T00:54:00.383Z,7.43
2023-04-07T00:58:02.212Z,7.60
2023-04-07T01:02:08.521Z,7.57
2023-04-07T01:06:10.443Z,8.00
2023-04-07T01:10:13.764Z,7.60
2023-04-07T01:14:15.953Z,7.53
2023-04-07T01:18:22.306Z,7.80
2023-04-07T01:22:29.437Z,9.50
2023-04-07T01:26:35.581Z,9.00
2023-04-07T01:30:45.203Z,9.90
2023-04-07T01:34:48.961Z,9.13
2023-04-07T01:38:51.205Z,9.20
2023-04-07T01:42:53.096Z,8.80
2023-04-07T01:46:55.038Z,8.33
2023-04-07T01:50:56.827Z,9.73
2023-04-07T01:54:58.586Z,8.70
2023-04-07T01:59:00.629Z,8.53
2023-04-07T02:03:23.601Z,8.50
2023-04-07T02:07:32.308Z,8.27
2023-04-07T02:11:34.614Z,8.93
2023-04-07T02:15:36.849Z,8.77
2023-04-07T02:19:38.780Z,8.63
2023-04-07T02:23:40.674Z,8.50
2023-04-07T02:27:42.445Z,7.63
2023-04-07T02:31:44.212Z,7.90
2023-04-07T02:35:46.162Z,7.97
2023-04-07T02:39:47.841Z,7.80
2023-04-07T02:43:49.699Z,7.67
2023-04-07T02:47:51.488Z,7.70
2023-04-07T02:51:53.212Z,8.10
2023-04-07T02:55:54.929Z,7.87
2023-04-07T02:59:58.242Z,7.93
2023-04-07T03:04:00.109Z,8.27
2023-04-07T03:08:02.160Z,7.77
2023-04-07T03:12:04.036Z,7.87
2023-04-07T03:16:05.854Z,7.43
2023-04-07T03:20:08.302Z,7.30
2023-04-07T03:24:10.284Z,7.33
2023-04-07T03:28:12.053Z,7.17
2023-04-07T03:32:13.763Z,7.10
2023-04-07T03:36:15.591Z,6.87
2023-04-07T03:40:17.426Z,7.60
2023-04-07T03:44:19.172Z,7.63
2023-04-07T03:48:21.381Z,7.43
2023-04-07T03:52:23.225Z,6.90
2023-04-07T03:56:25.996Z,6.97
2023-04-07T04:00:31.456Z,6.60
2023-04-07T04:04:34.645Z,7.40
2023-04-07T04:08:36.426Z,7.13
2023-04-07T04:12:38.242Z,6.87
2023-04-07T04:16:40.022Z,7.37
2023-04-07T04:20:41.784Z,7.40
2023-04-07T04:24:43.592Z,7.00
2023-04-07T04:28:45.344Z,6.53
2023-04-07T04:32:47.784Z,6.80
2023-04-07T04:36:49.731Z,7.33
2023-04-07T04:40:51.543Z,6.63
2023-04-07T04:44:53.301Z,6.57
2023-04-07T04:48:55.065Z,6.10
2023-04-07T04:52:56.907Z,7.17
2023-04-07T04:56:58.649Z,6.83
2023-04-07T05:01:00.747Z,7.30
2023-04-07T05:05:02.948Z,7.37
2023-04-07T05:09:04.764Z,7.10
2023-04-07T05:13:09.957Z,5.97
2023-04-07T05:17:11.932Z,4.70
2023-04-07T05:21:13.678Z,5.37
2023-04-07T05:25:15.908Z,5.33
2023-04-07T05:29:17.686Z,6.20
2023-04-07T05:33:21.252Z,5.43
2023-04-07T05:37:25.990Z,5.30
2023-04-07T05:41:27.877Z,5.63
2023-04-07T05:45:32.683Z,6.00
2023-04-07T05:49:37.754Z,5.80
2023-04-07T05:53:39.615Z,5.50
2023-04-07T05:57:42.225Z,5.53
2023-04-07T06:01:44.107Z,5.87
2023-04-07T06:05:47.075Z,5.77
2023-04-07T06:09:50.220Z,6.50
2023-04-07T06:13:52.048Z,6.73
2023-04-07T06:17:54.101Z,6.00
2023-04-07T06:21:56.149Z,7.13
2023-04-07T06:25:58.212Z,8.17
2023-04-07T06:29:59.988Z,6.67
2023-04-07T06:34:01.839Z,6.17
2023-04-07T06:38:03.555Z,6.37
2023-04-07T06:42:05.474Z,5.97
2023-04-07T06:46:07.280Z,6.60
2023-04-07T06:50:09.481Z,7.73
2023-04-07T06:54:14.189Z,7.50
2023-04-07T06:58:16.214Z,7.43
2023-04-07T07:02:18.118Z,6.53
2023-04-07T07:06:20.252Z,7.00
2023-04-07T07:10:22.891Z,7.20
2023-04-07T07:14:24.811Z,6.77
2023-04-07T07:18:31.591Z,6.63
2023-04-07T07:22:33.724Z,6.63
2023-04-07T07:26:39.520Z,7.13
2023-04-07T07:30:41.675Z,6.60
2023-04-07T07:34:46.188Z,6.67
2023-04-07T07:38:53.233Z,6.80
2023-04-07T07:42:58.060Z,7.10
2023-04-07T07:51:19.081Z,7.20
2023-04-07T07:55:21.087Z,7.43
2023-04-07T07:59:22.943Z,7.63
2023-04-07T08:03:24.925Z,7.80
2023-04-07T08:07:27.440Z,7.63
2023-04-07T08:11:29.147Z,7.80
2023-04-07T08:15:30.947Z,8.27
2023-04-07T08:19:32.766Z,7.97
2023-04-07T08:23:34.601Z,7.87
2023-04-07T08:27:36.582Z,7.53
2023-04-07T08:31:44.229Z,8.13
2023-04-07T08:35:48.798Z,7.60
2023-04-07T08:39:52.027Z,7.63
2023-04-07T08:43:53.860Z,8.00
2023-04-07T08:47:58.943Z,7.50
2023-04-07T08:52:00.887Z,8.50
2023-04-07T08:56:03.101Z,8.10
2023-04-07T09:00:06.085Z,7.97
2023-04-07T09:04:10.538Z,8.40
2023-04-07T09:08:15.501Z,7.57
2023-04-07T09:12:17.217Z,8.27
2023-04-07T09:16:19.198Z,8.37
2023-04-07T09:20:24.623Z,7.33
2023-04-07T09:24:27.749Z,7.40
2023-04-07T09:28:42.169Z,7.10
2023-04-07T09:32:44.157Z,7.00
2023-04-07T09:36:48.033Z,7.47
2023-04-07T09:40:51.498Z,6.30
2023-04-07T09:44:53.363Z,6.40
2023-04-07T09:49:08.208Z,5.53
2023-04-07T09:53:10.088Z,6.00
2023-04-07T09:57:12.501Z,6.10
2023-04-07T10:01:17.001Z,5.90
2023-04-07T10:05:21.169Z,5.57
2023-04-07T10:09:28.345Z,5.47
2023-04-07T10:13:31.432Z,6.00
2023-04-07T10:17:33.723Z,5.67
2023-04-07T10:21:37.269Z,6.20
2023-04-07T10:25:40.169Z,5.57
2023-04-07T10:29:45.106Z,5.47
2023-04-07T10:33:55.954Z,5.57
2023-04-07T10:38:11.797Z,5.20
2023-04-07T10:42:41.586Z,5.27
2023-04-07T10:46:47.341Z,5.80
2023-04-07T10:51:08.480Z,5.87
2023-04-07T10:55:30.416Z,5.63
2023-04-07T10:59:33.092Z,5.27
2023-04-07T11:03:39.238Z,5.23
2023-04-07T11:07:48.854Z,5.30
2023-04-07T11:11:53.567Z,5.20
2023-04-07T11:15:55.505Z,5.43
2023-04-07T11:19:58.737Z,5.40
2023-04-07T11:24:00.562Z,5.10
2023-04-07T11:28:05.668Z,5.70
2023-04-07T11:32:12.441Z,5.80
2023-04-07T11:36:14.220Z,5.77
2023-04-07T11:40:33.514Z,5.57
2023-04-07T11:44:35.597Z,5.90
2023-04-07T11:48:39.213Z,5.80
2023-04-07T11:52:59.076Z,5.97
2023-04-07T11:57:01.272Z,5.70
2023-04-07T12:01:06.782Z,5.87
2023-04-07T12:05:11.749Z,5.73
2023-04-07T12:09:49.680Z,5.60
2023-04-07T12:13:51.987Z,6.13
2023-04-07T12:17:59.269Z,5.87
2023-04-07T12:22:01.107Z,6.10
2023-04-07T12:26:03.091Z,5.40
2023-04-07T12:30:05.358Z,5.93
2023-04-07T12:34:07.545Z,6.17
2023-04-07T12:38:09.504Z,6.10
2023-04-07T12:43:36.845Z,6.57
2023-04-07T12:47:38.733Z,6.30
2023-04-07T12:51:40.646Z,7.07
2023-04-07T12:55:42.599Z,7.27
2023-04-07T12:59:45.052Z,7.70
2023-04-07T13:03:47.392Z,8.57
2023-04-07T13:07:49.964Z,8.07
2023-04-07T13:11:51.727Z,8.30
2023-04-07T13:15:53.614Z,7.70
2023-04-07T13:19:55.867Z,8.80
2023-04-07T13:23:57.976Z,7.00
2023-04-07T13:27:59.966Z,7.80
2023-04-07T13:32:13.033Z,7.63
2023-04-07T13:36:15.108Z,7.47
2023-04-07T13:40:17.060Z,7.17
2023-04-07T13:44:18.754Z,7.47
2023-04-07T13:48:20.735Z,7.20
2023-04-07T13:52:22.635Z,6.53
2023-04-07T13:56:24.785Z,6.50
2023-04-07T14:00:26.705Z,6.90
2023-04-07T14:04:28.593Z,7.77
2023-04-07T14:08:30.449Z,7.93
2023-04-07T14:12:32.516Z,7.20
2023-04-07T14:16:34.384Z,7.90
2023-04-07T14:20:36.815Z,7.50
2023-04-07T14:24:39.425Z,8.13
2023-04-07T14:28:41.640Z,7.50
2023-04-07T14:32:43.978Z,8.00
2023-04-07T14:37:01.408Z,8.17
2023-04-07T14:45:08.982Z,8.37
2023-04-07T14:49:10.902Z,7.57
2023-04-07T14:53:16.307Z,8.00
2023-04-07T14:57:18.085Z,7.57
2023-04-07T15:01:19.942Z,7.87
2023-04-07T15:05:23.055Z,7.37
2023-04-07T15:09:24.841Z,7.40
2023-04-07T15:13:26.837Z,8.00
2023-04-07T15:17:40.572Z,7.50
2023-04-07T15:21:53.094Z,7.40
2023-04-07T15:26:00.738Z,7.73
2023-04-07T15:30:03.809Z,8.67
2023-04-07T15:34:07.576Z,7.70
2023-04-07T15:38:09.786Z,7.10
2023-04-07T15:42:18.329Z,7.53
2023-04-07T15:46:20.332Z,8.27
2023-04-07T15:50:24.881Z,8.20
2023-04-07T15:54:26.924Z,8.23
2023-04-07T15:58:31.908Z,8.67
2023-04-07T16:02:33.990Z,7.73
2023-04-07T16:06:35.991Z,8.33
2023-04-07T16:10:37.801Z,9.03
2023-04-07T16:14:56.233Z,9.83
2023-04-07T16:18:58.082Z,8.60
2023-04-07T16:23:00.944Z,9.77
2023-04-07T16:27:04.272Z,9.63
2023-04-07T16:31:08.790Z,9.73
2023-04-07T16:35:14.624Z,8.83
2023-04-07T16:39:28.283Z,9.17
2023-04-07T16:43:31.195Z,8.93
2023-04-07T16:47:33.129Z,9.43
2023-04-07T16:51:37.694Z,8.30
2023-04-07T16:55:41.473Z,8.07
2023-04-07T16:59:45.826Z,7.83
2023-04-07T17:03:50.493Z,7.67
2023-04-07T17:07:52.403Z,7.30
2023-04-07T17:11:54.418Z,8.20
2023-04-07T17:15:56.333Z,8.50
2023-04-07T17:20:04.227Z,7.67
2023-04-07T17:24:06.637Z,7.70
2023-04-07T17:28:17.880Z,7.53
2023-04-07T17:32:19.978Z,6.93
2023-04-07T17:36:24.700Z,6.40
2023-04-07T17:40:44.135Z,7.60
2023-04-07T17:44:46.054Z,7.63
2023-04-07T17:48:48.867Z,6.93
2023-04-07T17:52:52.038Z,7.53
2023-04-07T17:56:54.442Z,7.50
2023-04-07T18:00:56.552Z,7.17
2023-04-07T18:05:01.181Z,7.60
2023-04-07T18:09:04.872Z,7.13
2023-04-07T18:13:07.138Z,7.47
2023-04-07T18:17:11.466Z,6.90
2023-04-07T18:21:13.227Z,7.60
2023-04-07T18:25:16.636Z,7.70
2023-04-07T18:29:20.763Z,7.60
2023-04-07T18:33:22.754Z,7.30
2023-04-07T18:37:25.429Z,7.47
2023-04-07T18:41:27.279Z,8.20
2023-04-07T18:45:29.339Z,7.97
2023-04-07T18:49:43.888Z,8.20
2023-04-07T18:53:45.971Z,8.63
2023-04-07T18:57:47.940Z,9.03
2023-04-07T19:01:49.865Z,8.20
2023-04-07T19:05:52.700Z,9.40
2023-04-07T19:09:54.857Z,8.33
2023-04-07T19:13:59.040Z,9.17
2023-04-07T19:18:04.295Z,8.80
2023-04-07T19:22:06.196Z,9.53
2023-04-07T19:26:13.462Z,10.77
2023-04-07T19:30:16.412Z,10.63
2023-04-07T19:34:20.563Z,10.50
2023-04-07T19:38:22.416Z,9.23
2023-04-07T19:42:29.895Z,10.00
2023-04-07T19:46:33.779Z,10.53
2023-04-07T19:50:41.328Z,10.30
2023-04-07T19:54:43.431Z,9.87
2023-04-07T19:58:45.384Z,9.43
2023-04-07T20:02:49.995Z,9.73
2023-04-07T20:06:51.858Z,9.83
2023-04-07T20:10:53.763Z,9.60
2023-04-07T20:14:55.509Z,9.60
2023-04-07T20:18:57.340Z,9.10
2023-04-07T20:22:59.256Z,9.60
2023-04-07T20:27:01.838Z,8.37
2023-04-07T20:31:03.712Z,8.80
2023-04-07T20:35:06.101Z,8.13
2023-04-07T20:39:08.020Z,8.30
2023-04-07T20:43:09.936Z,7.80
2023-04-07T20:47:12.658Z,7.53
2023-04-07T20:51:14.475Z,7.03
2023-04-07T20:55:16.387Z,6.80
2023-04-07T20:59:18.173Z,6.77
2023-04-07T21:03:19.999Z,6.83
2023-04-07T21:07:21.934Z,6.80
2023-04-07T21:11:23.715Z,6.67
2023-04-07T21:15:25.694Z,6.73
2023-04-07T21:19:28.622Z,6.20
2023-04-07T21:23:32.340Z,7.03
2023-04-07T21:27:34.379Z,8.10
2023-04-07T21:31:36.394Z,7.03
2023-04-07T21:35:38.265Z,6.20
2023-04-07T21:39:40.029Z,6.97
2023-04-07T21:43:43.596Z,6.50
2023-04-07T21:47:45.551Z,5.90
2023-04-07T21:51:47.454Z,6.03
2023-04-07T21:55:49.288Z,7.07
2023-04-07T21:59:51.056Z,6.70
2023-04-07T22:03:52.870Z,6.70
2023-04-07T22:07:54.715Z,6.70
2023-04-07T22:11:57.245Z,8.70
2023-04-07T22:16:01.223Z,7.03
2023-04-07T22:20:03.666Z,7.10
2023-04-07T22:24:05.560Z,6.93
2023-04-07T22:28:07.280Z,7.60
2023-04-07T22:32:09.073Z,7.73
2023-04-07T22:36:10.742Z,7.33
2023-04-07T22:40:12.499Z,7.07
2023-04-07T22:44:14.175Z,6.97
2023-04-07T22:48:16.292Z,6.67
2023-04-07T22:52:18.037Z,8.00
2023-04-07T22:56:19.850Z,8.10
2023-04-07T23:00:22.126Z,9.80
2023-04-07T23:04:24.386Z,8.83
2023-04-07T23:08:26.110Z,9.70
2023-04-07T23:12:28.049Z,8.90
2023-04-07T23:16:29.860Z,9.80
2023-04-07T23:20:31.692Z,9.07
2023-04-07T23:24:33.589Z,9.97
2023-04-07T23:28:35.532Z,9.30
2023-04-07T23:32:37.549Z,9.67
2023-04-07T23:36:40.239Z,9.53
2023-04-07T23:40:41.966Z,9.63
2023-04-07T23:44:43.773Z,9.43
2023-04-07T23:48:46.896Z,9.50
2023-04-07T23:52:48.569Z,9.83
2023-04-07T23:56:50.436Z,9.70
